This is the latest recevied weather packets stored in our database for station/object VK3MAK-1. If no packets are shown the sender has not sent any weather packets the latest 10 day(s).
| Time | Temp. | Humidity | Pressure | Rain* | Wind** | Luminosity | Snow |
|---|---|---|---|---|---|---|---|
| 1778133003 | 11.11° C | 78% | 1024 hPa | 0 mm | 4.47 m/s, 270° | - | - |
| 1778132404 | 11.11° C | 78% | 1024 hPa | 0 mm | 4.47 m/s, 270° | - | - |
| 1778131803 | 10.56° C | 88% | 1024.1 hPa | 0 mm | 5.36 m/s, 248° | - | - |
| 1778131203 | 10.56° C | 88% | 1024.1 hPa | 0 mm | 5.36 m/s, 248° | - | - |
| 1778130603 | 10.56° C | 88% | 1024.1 hPa | 0 mm | 5.36 m/s, 248° | - | - |
| 1778130004 | 10.56° C | 95% | 1024.2 hPa | 0 mm | 4.02 m/s, 248° | - | - |
| 1778129403 | 10.56° C | 95% | 1024.2 hPa | 0.25 mm | 4.02 m/s, 248° | - | - |
| 1778128803 | 10.56° C | 95% | 1024.2 hPa | 0.25 mm | 4.02 m/s, 248° | - | - |
| 1778128203 | 11.67° C | 72% | 1024.2 hPa | 0 mm | 7.15 m/s, 225° | - | - |
| 1778127603 | 11.67° C | 72% | 1024.2 hPa | 0 mm | 7.15 m/s, 225° | - | - |
| 1778127003 | 11.67° C | 72% | 1024.2 hPa | 0 mm | 7.15 m/s, 225° | - | - |
| 1778126403 | 12.22° C | 64% | 1024 hPa | 0 mm | 8.05 m/s, 225° | - | - |
| 1778125804 | 12.22° C | 64% | 1024 hPa | 0 mm | 8.05 m/s, 225° | - | - |
| 1778125204 | 12.22° C | 64% | 1024 hPa | 0 mm | 8.05 m/s, 225° | - | - |
| 1778124606 | 12.22° C | 61% | 1024 hPa | 0 mm | 8.94 m/s, 225° | - | - |
| 1778124004 | 12.22° C | 61% | 1024 hPa | 0 mm | 8.94 m/s, 225° | - | - |
| 1778123403 | 12.22° C | 61% | 1024 hPa | 0 mm | 8.94 m/s, 225° | - | - |
| 1778122804 | 12.22° C | 62% | 1024.3 hPa | 0 mm | 8.49 m/s, 225° | - | - |
| 1778122204 | 12.22° C | 62% | 1024.3 hPa | 0 mm | 8.49 m/s, 225° | - | - |
| 1778121604 | 12.22° C | 62% | 1024.3 hPa | 0 mm | 8.49 m/s, 225° | - | - |
| 1778121004 | 12.22° C | 65% | 1024.6 hPa | 0 mm | 8.94 m/s, 225° | - | - |
| 1778120403 | 12.22° C | 65% | 1024.6 hPa | 0 mm | 8.94 m/s, 225° | - | - |
| 1778119803 | 12.22° C | 65% | 1024.6 hPa | 0 mm | 8.94 m/s, 225° | - | - |
| 1778119204 | 11.67° C | 78% | 1024.5 hPa | 0 mm | 8.05 m/s, 225° | - | - |
| 1778118603 | 11.67° C | 78% | 1024.5 hPa | 0 mm | 8.05 m/s, 225° | - | - |
* Rain latest hour (hover to see other rain measurements)
** Current wind speed in m/s (hover to see current wind gust speed)